Time;durP1;ratioP1;P1;durP2;ratioP2;P2;SDS_P1;SDS_P2;PMS_P1;PMS_P2;Temp;Humidity;BMP_temperature;BMP_pressure;BME280_temperature;BME280_humidity;BME280_pressure;Samples;Min_cycle;Max_cycle;Signal;HPM_P1;HPM_P2
2024/04/09 00:01:05;;;;;;;12.73;3.72;;;;;;;11.75;88.44;100883.81;5375248;26;20051;-74
2024/04/09 00:03:31;;;;;;;8.85;3.70;;;;;;;11.70;88.25;100873.31;5398783;26;20011;-70
2024/04/09 00:05:59;;;;;;;6.30;3.08;;;;;;;11.57;88.23;100847.78;5397066;26;20073;-74
2024/04/09 00:08:27;;;;;;;5.13;2.70;;;;;;;11.69;87.63;100875.81;5401743;26;20035;-70
2024/04/09 00:10:53;;;;;;;7.40;3.10;;;;;;;11.71;88.23;100874.19;5399958;26;20000;-71
2024/04/09 00:13:20;;;;;;;7.82;3.58;;;;;;;11.60;87.99;100865.97;5406460;26;20441;-71
2024/04/09 00:15:46;;;;;;;6.85;2.92;;;;;;;11.57;87.26;100858.13;5391809;26;20069;-71
2024/04/09 00:18:12;;;;;;;6.10;2.90;;;;;;;11.57;86.60;100863.28;5399166;26;20647;-71
2024/04/09 00:20:44;;;;;;;6.85;3.00;;;;;;;11.47;86.95;100868.09;5397050;26;20011;-71
2024/04/09 00:23:12;;;;;;;5.28;2.80;;;;;;;11.14;88.04;100871.09;5403500;26;19999;-73
2024/04/09 00:25:39;;;;;;;11.35;3.67;;;;;;;11.02;89.60;100882.63;5309795;26;20011;-70
2024/04/09 00:28:05;;;;;;;8.07;3.45;;;;;;;11.02;90.27;100867.13;5404812;26;20431;-71
2024/04/09 00:30:31;;;;;;;5.53;3.17;;;;;;;10.95;89.82;100871.13;5396207;26;20070;-72
2024/04/09 00:32:56;;;;;;;6.05;3.22;;;;;;;10.71;88.23;100856.38;5398048;26;20007;-70
2024/04/09 00:35:22;;;;;;;9.00;3.28;;;;;;;10.87;87.42;100872.53;5287042;27;20012;-71
2024/04/09 00:37:51;;;;;;;8.73;3.10;;;;;;;10.83;86.92;100854.31;5287852;27;20006;-74
2024/04/09 00:40:19;;;;;;;10.30;3.15;;;;;;;10.85;86.69;100867.28;5284654;27;20027;-70
2024/04/09 00:42:49;;;;;;;8.50;2.85;;;;;;;10.83;86.79;100869.81;5292211;26;20006;-72
2024/04/09 00:45:16;;;;;;;8.15;3.03;;;;;;;10.80;87.15;100854.19;5276836;27;20033;-75
2024/04/09 00:47:43;;;;;;;12.15;3.17;;;;;;;10.55;88.04;100865.16;5264896;27;20842;-70
2024/04/09 00:50:11;;;;;;;6.88;3.28;;;;;;;10.42;89.80;100868.91;5297990;27;20002;-70
2024/04/09 00:52:44;;;;;;;9.52;3.55;;;;;;;10.12;90.29;100853.81;5298172;27;20336;-71
2024/04/09 00:55:11;;;;;;;10.68;3.72;;;;;;;10.17;92.22;100870.38;5296221;27;20425;-73
2024/04/09 00:57:41;;;;;;;10.85;3.65;;;;;;;10.19;92.23;100857.53;5287075;27;20006;-72
2024/04/09 01:00:12;;;;;;;11.27;3.75;;;;;;;10.30;91.90;100858.00;5286733;27;20006;-73
2024/04/09 01:02:37;;;;;;;8.43;3.33;;;;;;;10.28;91.96;100849.31;5295268;27;20038;-70
2024/04/09 01:05:03;;;;;;;9.23;3.30;;;;;;;10.41;91.52;100864.56;5294917;27;20526;-73
2024/04/09 01:07:29;;;;;;;5.50;3.25;;;;;;;10.40;90.52;100851.59;5383774;26;20011;-73
2024/04/09 01:09:54;;;;;;;7.30;3.45;;;;;;;10.37;91.17;100849.75;5399607;26;20027;-74
2024/04/09 01:12:20;;;;;;;8.95;3.28;;;;;;;10.06;89.91;100801.06;5383614;26;20015;-69
2024/04/09 01:14:45;;;;;;;13.27;4.20;;;;;;;10.11;88.31;100804.72;5367219;26;20015;-71
2024/04/09 01:17:11;;;;;;;5.75;3.10;;;;;;;10.25;86.55;100837.16;5393633;26;20421;-70
2024/04/09 01:19:36;;;;;;;8.95;3.55;;;;;;;9.99;87.70;100851.47;5385310;26;20014;-70
2024/04/09 01:22:04;;;;;;;4.40;3.38;;;;;;;9.80;87.37;100842.03;5386380;26;20460;-70
2024/04/09 01:24:32;;;;;;;5.40;3.30;;;;;;;9.81;86.96;100854.09;5392829;26;20000;-71
2024/04/09 01:26:58;;;;;;;7.88;3.30;;;;;;;9.81;85.90;100844.66;5394361;26;20013;-76
2024/04/09 01:29:23;;;;;;;7.35;2.60;;;;;;;9.91;85.82;100848.56;5388561;26;19999;-70
2024/04/09 01:31:49;;;;;;;5.32;2.65;;;;;;;9.81;84.71;100825.75;5384117;26;20016;-72
2024/04/09 01:34:15;;;;;;;5.72;3.05;;;;;;;9.90;84.47;100836.47;5394339;26;20023;-70
2024/04/09 01:36:42;;;;;;;6.20;3.17;;;;;;;9.85;84.72;100848.28;5391718;26;20050;-70
2024/04/09 01:39:08;;;;;;;6.93;3.08;;;;;;;9.80;85.38;100840.31;5390791;26;20039;-72
2024/04/09 01:41:38;;;;;;;8.23;2.78;;;;;;;9.82;86.32;100842.97;5397821;26;20322;-70
2024/04/09 01:44:04;;;;;;;;;;;;;;;9.85;86.72;100851.72;5395461;26;20008;-73
2024/04/09 01:46:29;;;;;;;7.03;2.92;;;;;;;9.76;87.24;100851.31;5396873;26;20270;-74
2024/04/09 01:48:55;;;;;;;5.50;2.92;;;;;;;9.57;87.94;100810.91;5398981;26;20011;-71
2024/04/09 01:51:20;;;;;;;7.10;3.10;;;;;;;9.59;88.28;100847.06;5407519;26;20000;-71
2024/04/09 01:53:49;;;;;;;5.75;2.95;;;;;;;9.53;88.40;100839.91;5389585;26;19999;-72
2024/04/09 01:56:15;;;;;;;7.13;2.90;;;;;;;9.53;89.52;100839.91;5395885;26;20055;-72
2024/04/09 01:58:41;;;;;;;8.73;3.28;;;;;;;9.57;89.52;100847.00;5407571;26;20036;-70
2024/04/09 02:01:09;;;;;;;6.32;3.17;;;;;;;9.53;89.98;100830.50;5391433;26;19999;-74
2024/04/09 02:03:38;;;;;;;4.85;3.05;;;;;;;9.65;89.79;100842.19;5393306;26;20000;-71
2024/04/09 02:06:04;;;;;;;6.97;3.10;;;;;;;9.66;90.12;100836.25;5384542;26;20015;-73
2024/04/09 02:08:30;;;;;;;7.15;3.63;;;;;;;9.42;90.93;100826.53;5398507;26;19996;-71
2024/04/09 02:10:55;;;;;;;6.22;3.33;;;;;;;9.36;92.16;100846.88;5384496;26;20004;-70
2024/04/09 02:13:22;;;;;;;7.00;3.20;;;;;;;9.32;92.80;100844.94;5383384;26;20500;-73
2024/04/09 02:15:49;;;;;;;7.53;3.50;;;;;;;9.33;93.41;100838.97;5385101;26;20000;-73
2024/04/09 02:18:15;;;;;;;5.88;3.30;;;;;;;9.45;93.55;100846.41;5393650;26;20030;-70
2024/04/09 02:20:44;;;;;;;7.30;3.42;;;;;;;9.45;92.16;100841.25;5396369;26;20013;-76
2024/04/09 02:23:10;;;;;;;5.72;3.10;;;;;;;9.48;90.06;100831.09;5393648;26;20001;-70
2024/04/09 02:25:35;;;;;;;5.63;2.83;;;;;;;9.27;90.94;100847.31;5399471;26;20010;-70
2024/04/09 02:28:01;;;;;;;5.60;3.35;;;;;;;9.14;93.43;100827.78;5383235;26;20034;-70
2024/04/09 02:30:26;;;;;;;6.47;3.30;;;;;;;9.16;93.52;100846.78;5363595;26;20004;-73
2024/04/09 02:32:51;;;;;;;5.35;3.20;;;;;;;8.85;95.75;100855.56;5397717;26;20465;-72
2024/04/09 02:35:19;;;;;;;4.68;3.10;;;;;;;8.82;97.31;100852.84;5388262;26;20008;-71
2024/04/09 02:37:46;;;;;;;4.32;2.90;;;;;;;8.26;97.42;100795.06;5397836;26;20004;-72
2024/04/09 02:40:17;;;;;;;7.20;3.17;;;;;;;8.65;97.16;100840.78;5389082;26;19996;-71
2024/04/09 02:42:44;;;;;;;6.30;3.70;;;;;;;8.74;95.98;100834.41;5400804;26;20067;-70
2024/04/09 02:45:09;;;;;;;4.15;3.05;;;;;;;8.85;95.56;100840.13;5390114;26;19996;-69
2024/04/09 02:47:35;;;;;;;6.28;3.00;;;;;;;8.59;97.03;100859.41;5387160;26;20019;-72
2024/04/09 02:50:03;;;;;;;6.28;3.20;;;;;;;8.35;100.00;100872.72;5401680;26;19999;-73
2024/04/09 02:52:29;;;;;;;5.78;3.00;;;;;;;8.34;100.00;100847.78;5402475;26;20093;-73
2024/04/09 02:54:55;;;;;;;5.10;3.10;;;;;;;8.30;99.79;100865.56;5402376;26;20003;-70
2024/04/09 02:57:21;;;;;;;5.05;3.25;;;;;;;8.35;97.22;100871.81;5393496;26;20069;-69
2024/04/09 02:59:46;;;;;;;4.82;3.47;;;;;;;8.45;96.56;100865.47;5389449;26;20004;-70
2024/04/09 03:02:12;;;;;;;7.78;3.72;;;;;;;8.17;95.38;100815.16;5351314;26;19999;-70
2024/04/09 03:04:37;;;;;;;9.65;3.33;;;;;;;8.26;94.94;100869.66;5360526;26;20460;-72
2024/04/09 03:07:03;;;;;;;6.10;3.15;;;;;;;8.14;95.70;100879.28;5382772;26;20011;-72
2024/04/09 03:09:31;;;;;;;4.65;3.45;;;;;;;8.09;96.28;100863.63;5358478;26;20069;-70
2024/04/09 03:11:57;;;;;;;5.10;3.10;;;;;;;8.41;96.53;100882.44;5397306;26;20031;-72
2024/04/09 03:14:23;;;;;;;4.93;2.88;;;;;;;8.50;96.28;100864.03;5400756;26;20326;-69
2024/04/09 03:16:50;;;;;;;8.27;3.15;;;;;;;8.62;95.14;100876.69;5399604;26;19996;-73
2024/04/09 03:19:18;;;;;;;6.82;3.45;;;;;;;8.64;94.63;100864.78;5391090;26;20000;-72
2024/04/09 03:21:44;;;;;;;6.03;3.35;;;;;;;8.69;95.65;100871.03;5387289;26;20066;-73
2024/04/09 03:24:10;;;;;;;6.43;3.40;;;;;;;8.79;95.45;100872.41;5394602;26;20003;-72
2024/04/09 03:26:39;;;;;;;6.00;2.85;;;;;;;8.89;94.52;100872.91;5401031;26;20024;-75
2024/04/09 03:29:04;;;;;;;5.03;3.33;;;;;;;8.82;93.94;100881.16;5384335;26;20015;-74
2024/04/09 03:31:30;;;;;;;5.40;3.38;;;;;;;8.70;93.58;100860.81;5386501;26;20036;-71
2024/04/09 03:33:56;;;;;;;4.55;2.95;;;;;;;8.41;94.07;100826.72;5391388;26;19995;-73
2024/04/09 03:36:21;;;;;;;8.35;3.10;;;;;;;8.69;93.59;100866.78;5397919;26;20007;-69
2024/04/09 03:38:47;;;;;;;5.72;3.28;;;;;;;8.68;92.81;100866.69;5386303;26;20032;-72
2024/04/09 03:41:13;;;;;;;6.03;2.80;;;;;;;8.70;92.09;100873.69;5368107;26;20003;-74
2024/04/09 03:43:38;;;;;;;6.70;3.40;;;;;;;8.64;92.22;100878.53;5398970;26;20011;-72
2024/04/09 03:46:06;;;;;;;6.82;3.08;;;;;;;8.70;92.46;100881.41;5302345;26;20048;-70
2024/04/09 03:48:36;;;;;;;5.35;3.20;;;;;;;8.74;91.50;100875.59;5384580;26;20423;-70
2024/04/09 03:51:02;;;;;;;8.15;3.38;;;;;;;8.66;90.92;100855.44;5409135;26;19997;-71
2024/04/09 03:53:28;;;;;;;6.57;3.58;;;;;;;8.58;91.57;100843.09;5361374;26;20015;-70
2024/04/09 03:55:57;;;;;;;6.70;3.15;;;;;;;8.68;92.41;100882.16;5392767;26;20349;-71
2024/04/09 03:58:23;;;;;;;;;;;;;;;8.41;93.44;100888.47;5362637;26;20439;-74
2024/04/09 04:00:59;;;;;;;5.63;3.42;;;;;;;8.25;93.39;100891.06;5399145;26;20252;-71
2024/04/09 04:03:28;;;;;;;4.80;3.20;;;;;;;8.17;92.77;100889.75;5397980;26;20007;-70
2024/04/09 04:05:56;;;;;;;8.40;3.45;;;;;;;8.08;92.52;100880.72;5404560;26;20004;-71
2024/04/09 04:08:23;;;;;;;8.35;3.38;;;;;;;8.17;92.67;100892.31;5404492;26;19996;-74
2024/04/09 04:10:54;;;;;;;8.68;3.45;;;;;;;8.21;93.11;100889.09;5391722;26;20330;-70
2024/04/09 04:13:22;;;;;;;4.65;3.08;;;;;;;8.34;92.61;100906.97;5400583;26;20073;-71
2024/04/09 04:16:06;;;;;;;6.85;3.80;;;;;;;8.41;92.72;100910.72;5405875;26;20004;-71
2024/04/09 04:18:34;;;;;;;5.25;2.72;;;;;;;8.26;92.17;100911.72;5402049;26;20372;-70
2024/04/09 04:21:00;;;;;;;5.60;3.05;;;;;;;8.04;93.26;100922.53;5388302;26;20323;-69
2024/04/09 04:23:26;;;;;;;5.13;3.33;;;;;;;7.71;94.58;100913.84;5399097;26;20000;-70
2024/04/09 04:26:06;;;;;;;7.78;3.33;;;;;;;7.36;96.51;100867.38;5401738;26;20019;-71
2024/04/09 04:28:37;;;;;;;5.13;2.92;;;;;;;7.62;97.67;100919.34;5390425;26;20003;-73
2024/04/09 04:31:07;;;;;;;5.10;2.88;;;;;;;7.58;98.33;100915.72;5373785;26;20009;-70
2024/04/09 04:33:33;;;;;;;8.68;5.40;;;;;;;7.36;99.55;100908.47;5401527;26;20014;-74
2024/04/09 04:35:59;;;;;;;13.35;8.52;;;;;;;7.40;100.00;100902.75;5398984;26;20003;-71
2024/04/09 04:38:25;;;;;;;10.25;7.13;;;;;;;7.34;99.34;100860.38;5390616;26;20081;-72
2024/04/09 04:40:51;;;;;;;9.48;4.35;;;;;;;7.16;100.00;100880.78;5328060;26;20040;-71
2024/04/09 04:43:16;;;;;;;7.65;4.55;;;;;;;7.18;100.00;100917.69;5402886;26;20391;-73
2024/04/09 04:45:45;;;;;;;15.35;11.35;;;;;;;7.09;100.00;100923.19;5400652;26;20048;-71
2024/04/09 04:48:12;;;;;;;14.13;10.75;;;;;;;6.95;100.00;100923.28;5402166;26;20442;-69
2024/04/09 04:50:38;;;;;;;12.63;9.32;;;;;;;6.71;100.00;100912.44;5340859;26;20007;-70
2024/04/09 04:53:04;;;;;;;15.68;9.52;;;;;;;6.80;100.00;100924.91;5326794;26;20457;-70
2024/04/09 04:55:32;;;;;;;8.25;5.72;;;;;;;6.89;100.00;100922.91;5318676;26;20004;-74
2024/04/09 04:57:58;;;;;;;7.18;4.55;;;;;;;7.02;100.00;100934.78;5316408;26;20048;-71
2024/04/09 05:00:23;;;;;;;9.85;5.90;;;;;;;7.24;100.00;100920.63;5323210;26;20435;-70
2024/04/09 05:02:49;;;;;;;7.40;5.20;;;;;;;7.09;100.00;100877.88;5330189;26;20033;-71
2024/04/09 05:05:15;;;;;;;8.25;4.55;;;;;;;7.57;100.00;100929.34;5324724;26;20004;-73
2024/04/09 05:07:40;;;;;;;7.70;5.72;;;;;;;7.12;100.00;100874.59;5334147;26;20012;-70
2024/04/09 05:10:12;;;;;;;6.60;5.68;;;;;;;7.46;100.00;100917.59;5321038;26;20056;-73
2024/04/09 05:12:44;;;;;;;6.05;4.43;;;;;;;7.31;100.00;100886.78;5333194;26;20005;-73
2024/04/09 05:15:09;;;;;;;8.15;5.13;;;;;;;7.44;100.00;100924.34;5337995;26;20467;-72
2024/04/09 05:17:35;;;;;;;6.93;4.18;;;;;;;7.49;100.00;100935.78;5328746;26;20001;-72
2024/04/09 05:20:11;;;;;;;8.20;4.53;;;;;;;7.45;100.00;100933.81;5303531;26;20005;-72
2024/04/09 05:22:42;;;;;;;10.45;4.95;;;;;;;7.30;100.00;100887.56;5385481;26;20010;-69
2024/04/09 05:25:11;;;;;;;11.00;7.03;;;;;;;7.35;100.00;100913.53;5403952;26;20007;-70
2024/04/09 05:27:38;;;;;;;;;;;;;;;7.66;100.00;100926.41;5386318;26;20039;-70
2024/04/09 05:30:05;;;;;;;14.68;8.13;;;;;;;7.56;100.00;100925.03;5413660;26;19932;-72
2024/04/09 05:32:35;;;;;;;7.22;5.13;;;;;;;7.87;100.00;100918.16;5415407;26;20003;-69
2024/04/09 05:35:02;;;;;;;8.02;4.97;;;;;;;8.07;100.00;100939.81;5387605;26;20000;-72
2024/04/09 05:37:29;;;;;;;7.88;5.32;;;;;;;8.19;100.00;100919.03;5415200;26;19996;-70
2024/04/09 05:39:55;;;;;;;7.20;4.72;;;;;;;8.37;100.00;100924.25;5415747;26;19999;-71
2024/04/09 05:42:20;;;;;;;6.35;5.03;;;;;;;8.72;100.00;100922.66;5413645;26;20101;-69
2024/04/09 05:44:47;;;;;;;6.50;4.68;;;;;;;8.87;100.00;100913.19;5404445;26;20014;-69
2024/04/09 05:47:13;;;;;;;5.90;4.60;;;;;;;9.15;100.00;100911.97;5390630;26;20000;-70
2024/04/09 05:49:39;;;;;;;6.38;4.68;;;;;;;9.44;100.00;100920.25;5402763;26;19995;-69
2024/04/09 05:52:05;;;;;;;6.05;4.63;;;;;;;9.51;100.00;100914.59;5402358;26;20388;-71
2024/04/09 05:54:31;;;;;;;7.43;4.60;;;;;;;9.65;100.00;100901.50;5394198;26;20315;-70
2024/04/09 05:56:57;;;;;;;17.27;5.25;;;;;;;10.00;100.00;100918.59;5321404;26;20316;-69
2024/04/09 05:59:22;;;;;;;6.80;4.72;;;;;;;10.21;100.00;100917.84;5403604;26;20019;-69
2024/04/09 06:01:48;;;;;;;6.80;4.93;;;;;;;10.33;100.00;100909.75;5318297;26;20015;-73
2024/04/09 06:04:14;;;;;;;7.22;5.18;;;;;;;10.47;100.00;100902.69;5394330;26;20075;-70
2024/04/09 06:06:40;;;;;;;6.32;4.97;;;;;;;10.64;100.00;100922.38;5396838;26;20410;-71
2024/04/09 06:09:06;;;;;;;6.75;5.18;;;;;;;10.63;100.00;100902.53;5381278;26;20078;-70
2024/04/09 06:11:32;;;;;;;7.30;4.43;;;;;;;10.92;100.00;100927.84;5383015;26;20322;-69
2024/04/09 06:13:57;;;;;;;6.65;4.80;;;;;;;10.98;100.00;100902.28;5389871;26;19992;-69
2024/04/09 06:16:23;;;;;;;5.60;4.45;;;;;;;11.12;100.00;100903.72;5398089;26;19999;-71
2024/04/09 06:18:48;;;;;;;6.40;4.35;;;;;;;11.38;100.00;100910.81;5389625;26;20000;-71
2024/04/09 06:21:14;;;;;;;8.18;4.60;;;;;;;11.49;100.00;100917.31;5395904;26;20000;-71
2024/04/09 06:23:40;;;;;;;9.93;5.25;;;;;;;11.64;100.00;100929.97;5389715;26;20010;-69
2024/04/09 06:26:05;;;;;;;6.45;4.78;;;;;;;11.75;100.00;100927.78;5407161;26;19999;-69
2024/04/09 06:28:32;;;;;;;7.95;4.95;;;;;;;11.65;100.00;100905.84;5395699;26;20047;-70
2024/04/09 06:30:58;;;;;;;8.20;5.32;;;;;;;11.65;100.00;100885.16;5385758;26;20418;-73
2024/04/09 06:33:25;;;;;;;7.50;5.50;;;;;;;12.07;100.00;100929.06;5386366;26;20000;-72
2024/04/09 06:35:50;;;;;;;7.72;4.78;;;;;;;12.22;100.00;100909.78;5396689;26;20000;-71
2024/04/09 06:38:16;;;;;;;6.65;4.90;;;;;;;12.26;100.00;100911.63;5381641;26;20415;-70
2024/04/09 06:40:42;;;;;;;5.85;4.75;;;;;;;12.42;100.00;100911.41;5398791;26;20000;-70
2024/04/09 06:43:07;;;;;;;7.55;5.10;;;;;;;12.56;98.25;100909.31;5400966;26;20076;-71
2024/04/09 06:45:33;;;;;;;7.78;4.82;;;;;;;12.54;97.73;100910.06;5401346;26;20010;-72
2024/04/09 06:47:58;;;;;;;5.95;4.50;;;;;;;12.74;99.46;100915.97;5393017;26;20073;-71
2024/04/09 06:50:24;;;;;;;8.77;5.03;;;;;;;12.42;98.36;100823.34;5366145;26;19995;-69
2024/04/09 06:52:49;;;;;;;10.70;4.72;;;;;;;13.09;98.58;100914.56;5390108;26;20014;-70
2024/04/09 06:55:15;;;;;;;7.60;5.00;;;;;;;13.28;96.43;100907.41;5392295;26;19999;-70
2024/04/09 06:57:40;;;;;;;7.03;4.70;;;;;;;13.37;96.29;100902.56;5396407;26;20004;-70
2024/04/09 07:00:07;;;;;;;8.32;4.70;;;;;;;13.64;95.30;100922.44;5386596;26;19999;-72
2024/04/09 07:02:33;;;;;;;7.25;4.57;;;;;;;13.82;96.48;100918.66;5385950;26;20019;-69
2024/04/09 07:04:59;;;;;;;9.38;4.43;;;;;;;13.85;95.00;100909.25;5406240;26;20004;-70
2024/04/09 07:07:25;;;;;;;10.05;4.22;;;;;;;13.83;95.35;100892.78;5396767;26;20036;-69
2024/04/09 07:09:51;;;;;;;7.20;3.90;;;;;;;13.93;94.05;100874.84;5385725;26;20909;-73
2024/04/09 07:12:16;;;;;;;6.80;3.90;;;;;;;14.28;93.95;100917.44;5391469;26;20007;-72
2024/04/09 07:14:42;;;;;;;9.48;4.35;;;;;;;14.30;96.00;100915.75;5368689;26;20031;-70
2024/04/09 07:17:08;;;;;;;7.05;3.95;;;;;;;14.42;97.44;100901.34;5408571;26;20076;-72
2024/04/09 07:19:33;;;;;;;7.82;4.10;;;;;;;14.62;97.52;100908.00;5319632;26;20004;-71
2024/04/09 07:21:59;;;;;;;7.80;3.85;;;;;;;14.75;97.00;100900.56;5406684;26;20007;-72
2024/04/09 07:24:25;;;;;;;8.60;4.10;;;;;;;14.99;92.12;100910.72;5396941;26;20000;-72
2024/04/09 07:26:50;;;;;;;5.65;3.33;;;;;;;14.97;89.65;100902.03;5391915;26;20015;-70
2024/04/09 07:29:18;;;;;;;6.82;4.32;;;;;;;15.07;96.84;100900.53;5365227;26;20000;-73
2024/04/09 07:31:43;;;;;;;8.65;4.68;;;;;;;15.06;98.80;100886.63;5362129;26;20000;-75
2024/04/09 07:34:09;;;;;;;16.40;4.85;;;;;;;15.36;97.71;100907.34;5409212;26;20422;-70
2024/04/09 07:36:34;;;;;;;7.75;4.10;;;;;;;15.55;95.46;100905.16;5397832;26;20027;-71
2024/04/09 07:39:00;;;;;;;10.07;4.32;;;;;;;15.60;92.52;100893.16;5404392;26;20000;-70
2024/04/09 07:41:26;;;;;;;5.95;3.45;;;;;;;15.71;90.92;100887.31;5388245;26;20434;-71
2024/04/09 07:43:52;;;;;;;4.13;3.05;;;;;;;15.84;89.41;100903.25;5393573;26;20003;-74
2024/04/09 07:46:21;;;;;;;5.07;3.55;;;;;;;15.82;91.48;100880.66;5392933;26;20077;-69
2024/04/09 07:48:47;;;;;;;5.60;3.38;;;;;;;16.04;91.69;100883.69;5405135;26;20442;-72
2024/04/09 07:51:12;;;;;;;5.28;3.60;;;;;;;16.18;90.32;100887.50;5412732;26;20015;-71
2024/04/09 07:53:41;;;;;;;4.53;3.42;;;;;;;16.11;88.13;100850.03;5415614;26;19999;-73
2024/04/09 07:56:12;;;;;;;6.18;3.33;;;;;;;16.47;87.97;100879.38;5404212;26;20450;-73
2024/04/09 07:58:38;;;;;;;5.72;3.20;;;;;;;16.61;85.69;100884.84;5413864;26;20430;-71
2024/04/09 08:01:04;;;;;;;6.40;3.17;;;;;;;16.68;84.76;100875.44;5398339;26;20000;-71
2024/04/09 08:03:29;;;;;;;7.72;3.00;;;;;;;16.86;81.70;100874.84;5413285;26;19995;-74
2024/04/09 08:05:55;;;;;;;6.72;3.25;;;;;;;16.88;78.27;100857.53;5405932;26;19995;-72
2024/04/09 08:08:20;;;;;;;6.53;2.53;;;;;;;17.06;77.92;100872.63;5414199;26;20007;-74
2024/04/09 08:10:48;;;;;;;13.23;3.35;;;;;;;16.94;77.56;100818.53;5416733;26;20012;-72
2024/04/09 08:13:13;;;;;;;4.40;2.65;;;;;;;17.31;76.85;100850.44;5401704;26;20087;-73
2024/04/09 08:15:39;;;;;;;3.97;2.47;;;;;;;17.57;74.28;100857.75;5370472;26;20004;-75
2024/04/09 08:18:04;;;;;;;6.50;2.50;;;;;;;17.60;73.64;100853.47;5387282;26;20007;-75
2024/04/09 08:20:30;;;;;;;3.30;1.88;;;;;;;17.59;67.09;100848.22;5393446;26;20000;-69
2024/04/09 08:22:56;;;;;;;6.25;2.40;;;;;;;17.59;67.06;100843.00;5395819;26;20023;-75
2024/04/09 08:25:21;;;;;;;3.75;1.67;;;;;;;17.65;67.89;100850.91;5409587;26;20000;-72
2024/04/09 08:27:51;;;;;;;2.47;1.70;;;;;;;17.77;60.04;100838.03;5403869;26;20078;-70
2024/04/09 08:30:23;;;;;;;3.10;1.55;;;;;;;17.81;58.97;100820.66;5399971;26;20011;-73
2024/04/09 08:32:52;;;;;;;3.58;2.00;;;;;;;18.02;54.77;100811.38;5393848;26;19992;-73
2024/04/09 08:35:18;;;;;;;7.35;1.73;;;;;;;18.21;58.13;100821.19;5386580;26;20000;-71
2024/04/09 08:37:44;;;;;;;2.95;1.70;;;;;;;18.30;58.77;100806.47;5400493;26;20160;-76
2024/04/09 08:40:13;;;;;;;4.30;1.73;;;;;;;18.46;57.42;100805.75;5384430;26;20000;-71
2024/04/09 08:42:38;;;;;;;3.08;1.60;;;;;;;18.69;54.75;100815.53;5384884;26;20032;-72
2024/04/09 08:45:11;;;;;;;7.65;2.53;;;;;;;18.76;54.18;100810.38;5402792;26;20004;-75
2024/04/09 08:47:37;;;;;;;5.38;2.13;;;;;;;18.91;58.26;100820.13;5396302;26;20040;-71
2024/04/09 08:50:03;;;;;;;7.05;2.13;;;;;;;18.99;55.07;100780.06;5380142;26;20000;-74
2024/04/09 08:52:29;;;;;;;3.35;1.88;;;;;;;19.30;53.39;100809.97;5398145;26;20011;-75
2024/04/09 08:54:55;;;;;;;6.90;1.55;;;;;;;19.37;53.40;100800.41;5399971;26;19999;-70
2024/04/09 08:57:21;;;;;;;5.25;1.70;;;;;;;19.42;47.64;100801.28;5368449;26;19999;-71
2024/04/09 08:59:47;;;;;;;5.30;1.83;;;;;;;19.46;51.53;100789.97;5391277;26;20072;-71
2024/04/09 09:02:14;;;;;;;2.50;1.50;;;;;;;19.53;46.87;100770.81;5395803;26;20000;-73
2024/04/09 09:04:45;;;;;;;4.07;1.58;;;;;;;19.75;46.61;100781.41;5398621;26;20015;-73
2024/04/09 09:07:22;;;;;;;3.58;1.90;;;;;;;19.82;47.77;100779.66;5398231;26;20319;-72
2024/04/09 09:09:48;;;;;;;7.25;2.75;;;;;;;20.02;50.01;100782.38;5407184;26;20330;-73
2024/04/09 09:12:15;;;;;;;4.35;1.88;;;;;;;20.08;43.20;100790.25;5403939;26;20028;-73
2024/04/09 09:14:55;;;;;;;3.05;1.52;;;;;;;20.18;41.47;100778.91;5410293;26;20835;-73
2024/04/09 09:17:21;;;;;;;;;;;;;;;20.24;44.86;100777.19;5375781;26;20101;-72
2024/04/09 09:19:56;;;;;;;5.25;2.08;;;;;;;20.31;45.65;100778.94;5364112;26;19953;-72
2024/04/09 09:22:24;;;;;;;3.13;1.67;;;;;;;20.47;42.07;100777.22;5411427;26;19996;-71
2024/04/09 09:24:59;;;;;;;6.78;2.45;;;;;;;20.42;40.28;100737.88;5396571;26;20449;-74
2024/04/09 09:27:26;;;;;;;8.07;2.92;;;;;;;20.71;40.94;100767.63;5395210;26;19995;-72
2024/04/09 09:29:56;;;;;;;5.28;2.25;;;;;;;20.88;41.95;100763.25;5408335;26;20011;-71
2024/04/09 09:32:23;;;;;;;3.17;1.60;;;;;;;21.03;40.43;100758.88;5400647;26;19999;-71
2024/04/09 09:34:51;;;;;;;3.33;1.30;;;;;;;20.96;36.58;100753.66;5398041;26;20011;-72
2024/04/09 09:37:17;;;;;;;1.85;1.40;;;;;;;20.73;40.70;100716.06;5398526;26;20007;-71
2024/04/09 09:39:42;;;;;;;3.22;1.40;;;;;;;20.93;37.87;100750.16;5400054;26;20000;-72
2024/04/09 09:42:12;;;;;;;2.55;1.30;;;;;;;20.81;38.69;100737.91;5400487;26;19995;-73
2024/04/09 09:44:42;;;;;;;2.08;1.33;;;;;;;20.78;37.62;100753.66;5384539;26;20423;-71
2024/04/09 09:47:08;;;;;;;;;;;;;;;21.00;41.57;100758.00;5399234;26;19999;-75
2024/04/09 09:49:34;;;;;;;4.47;1.70;;;;;;;21.04;38.48;100743.13;5398031;26;19925;-74
2024/04/09 09:52:01;;;;;;;3.20;1.80;;;;;;;21.21;41.17;100752.72;5391816;26;19999;-71
2024/04/09 09:54:27;;;;;;;6.75;1.42;;;;;;;21.34;41.38;100743.94;5393171;26;20000;-73
2024/04/09 09:56:59;;;;;;;3.65;1.63;;;;;;;21.45;39.53;100733.41;5397197;26;20006;-71
2024/04/09 09:59:30;;;;;;;3.78;1.40;;;;;;;21.60;36.85;100740.38;5396742;26;19996;-71
2024/04/09 10:01:57;;;;;;;4.00;1.58;;;;;;;21.73;39.13;100726.31;5398426;26;20004;-74
2024/04/09 10:04:25;;;;;;;2.60;1.30;;;;;;;21.96;34.73;100735.81;5399439;26;20741;-72
2024/04/09 10:06:59;;;;;;;8.15;2.20;;;;;;;21.92;35.21;100699.88;5399781;26;20007;-71
2024/04/09 10:09:50;;;;;;;6.45;2.20;;;;;;;22.21;33.89;100738.28;5399892;26;19999;-72
2024/04/09 10:12:35;;;;;;;3.78;1.60;;;;;;;22.38;36.33;100739.06;5400329;26;20069;-72
2024/04/09 10:15:16;;;;;;;4.47;1.92;;;;;;;22.51;36.41;100731.06;5384789;26;19992;-70
2024/04/09 10:17:56;;;;;;;3.63;1.55;;;;;;;22.59;35.71;100729.25;5402417;26;20388;-74
2024/04/09 10:20:29;;;;;;;9.02;2.25;;;;;;;22.55;37.07;100701.22;5395657;26;20335;-74
2024/04/09 10:22:56;;;;;;;5.05;1.80;;;;;;;22.63;34.99;100683.63;5400209;26;20458;-75
2024/04/09 10:25:24;;;;;;;6.00;1.50;;;;;;;22.95;30.72;100719.25;5382552;26;20000;-75
2024/04/09 10:28:06;;;;;;;4.97;1.42;;;;;;;22.97;30.87;100712.22;5396392;26;20025;-73
2024/04/09 10:30:33;;;;;;;6.43;1.60;;;;;;;23.08;34.42;100717.38;5390244;26;20303;-72
2024/04/09 10:33:04;;;;;;;8.13;2.03;;;;;;;23.18;33.63;100705.88;5394493;26;20011;-71
2024/04/09 10:35:30;;;;;;;7.78;1.77;;;;;;;23.25;33.21;100702.28;5396050;26;20008;-71
2024/04/09 10:38:00;;;;;;;3.30;2.03;;;;;;;23.37;34.35;100706.50;5398563;26;20312;-70
2024/04/09 10:40:26;;;;;;;4.43;1.58;;;;;;;23.53;33.46;100698.44;5366593;26;20007;-72
2024/04/09 10:42:52;;;;;;;3.45;1.98;;;;;;;23.58;36.35;100700.09;5395461;26;20076;-73
2024/04/09 10:45:19;;;;;;;7.28;2.03;;;;;;;23.72;36.19;100693.78;5395238;26;20011;-72
2024/04/09 10:47:45;;;;;;;3.17;1.90;;;;;;;23.88;36.48;100689.16;5396754;26;20020;-71
2024/04/09 10:50:14;;;;;;;8.52;2.10;;;;;;;23.95;36.77;100696.13;5399493;26;20384;-74
2024/04/09 10:52:41;;;;;;;4.90;1.80;;;;;;;23.98;36.26;100687.28;5360194;26;20064;-75
2024/04/09 10:55:08;;;;;;;5.45;1.80;;;;;;;23.89;33.68;100665.41;5397869;26;19999;-73
2024/04/09 10:57:34;;;;;;;3.25;1.60;;;;;;;24.00;32.92;100678.47;5363407;26;20000;-77
2024/04/09 11:00:11;;;;;;;3.58;1.63;;;;;;;24.09;33.90;100674.81;5398324;26;20001;-71
2024/04/09 11:02:44;;;;;;;3.05;1.77;;;;;;;24.23;34.58;100674.59;5392968;26;20320;-71
2024/04/09 11:05:10;;;;;;;2.17;1.38;;;;;;;24.31;32.34;100666.53;5383423;26;20304;-74
2024/04/09 11:07:40;;;;;;;6.03;1.80;;;;;;;24.43;32.35;100668.09;5399788;26;20039;-70
2024/04/09 11:10:13;;;;;;;4.18;1.30;;;;;;;24.36;32.29;100643.56;5402528;26;20009;-75
2024/04/09 11:12:59;;;;;;;3.35;1.70;;;;;;;24.28;30.91;100634.94;5398266;26;19996;-70
2024/04/09 11:15:25;;;;;;;7.82;2.20;;;;;;;24.44;30.66;100648.75;5401962;26;20010;-71
2024/04/09 11:17:50;;;;;;;7.10;1.77;;;;;;;24.41;30.09;100620.59;5402162;26;19991;-71
2024/04/09 11:20:19;;;;;;;8.60;2.33;;;;;;;24.76;30.10;100642.91;5398695;26;20010;-75
2024/04/09 11:22:46;;;;;;;8.32;2.40;;;;;;;24.13;29.69;100628.16;5395606;26;19999;-70
2024/04/09 11:25:19;;;;;;;5.75;2.03;;;;;;;24.14;30.43;100638.66;5331162;26;20002;-71
2024/04/09 11:27:48;;;;;;;6.47;2.55;;;;;;;24.37;32.28;100640.03;5397186;26;20000;-71